createdAt,value
2022-11-10T00:01:59.062Z,27.40
2022-11-10T00:04:32.764Z,26.90
2022-11-10T00:07:03.524Z,27.40
2022-11-10T00:09:34.340Z,27.50
2022-11-10T00:12:05.086Z,27.70
2022-11-10T00:14:48.559Z,27.80
2022-11-10T00:17:19.800Z,27.90
2022-11-10T00:19:55.063Z,28.00
2022-11-10T00:22:26.254Z,27.90
2022-11-10T00:25:01.049Z,28.20
2022-11-10T00:27:33.183Z,28.20
2022-11-10T00:30:05.755Z,28.20
2022-11-10T00:32:38.704Z,28.40
2022-11-10T00:35:12.828Z,28.20
2022-11-10T00:37:43.620Z,28.50
2022-11-10T00:40:15.177Z,28.40
2022-11-10T00:42:46.255Z,28.40
2022-11-10T00:45:17.261Z,28.50
2022-11-10T00:47:48.656Z,29.00
2022-11-10T00:50:24.878Z,29.20
2022-11-10T00:52:55.735Z,29.30
2022-11-10T00:55:32.366Z,29.80
2022-11-10T00:58:03.136Z,29.00
2022-11-10T01:00:33.994Z,28.90
2022-11-10T01:03:07.440Z,29.30
2022-11-10T01:05:41.667Z,29.80
2022-11-10T01:08:13.110Z,29.60
2022-11-10T01:10:44.064Z,29.50
2022-11-10T01:13:16.717Z,29.60
2022-11-10T01:15:47.836Z,29.90
2022-11-10T01:18:19.086Z,30.00
2022-11-10T01:20:56.011Z,30.00
2022-11-10T01:23:26.729Z,30.00
2022-11-10T01:26:02.206Z,30.60
2022-11-10T01:28:34.211Z,31.30
2022-11-10T01:31:09.979Z,32.00
2022-11-10T01:33:43.500Z,32.00
2022-11-10T01:36:17.313Z,31.90
2022-11-10T01:38:48.200Z,32.00
2022-11-10T01:41:19.400Z,32.30
2022-11-10T01:43:50.089Z,32.70
2022-11-10T01:46:20.829Z,32.50
2022-11-10T01:48:57.396Z,32.20
2022-11-10T01:51:35.129Z,32.00
2022-11-10T01:54:09.107Z,31.90
2022-11-10T01:56:43.955Z,31.80
2022-11-10T01:59:18.187Z,31.90
2022-11-10T02:01:51.672Z,32.20
2022-11-10T02:04:23.608Z,32.70
2022-11-10T02:06:57.876Z,33.10
2022-11-10T02:09:28.724Z,33.40
2022-11-10T02:12:02.437Z,33.00
2022-11-10T02:14:34.435Z,32.70
2022-11-10T02:17:05.380Z,33.20
2022-11-10T02:19:42.714Z,33.20
2022-11-10T02:22:17.351Z,34.30
2022-11-10T02:24:48.111Z,34.20
2022-11-10T02:27:20.595Z,34.10
2022-11-10T02:29:52.745Z,34.20
2022-11-10T02:32:23.486Z,35.00
2022-11-10T02:34:54.289Z,35.00
2022-11-10T02:37:27.847Z,35.00
2022-11-10T02:39:58.590Z,35.00
2022-11-10T02:42:29.596Z,35.30
2022-11-10T02:45:00.940Z,35.70
2022-11-10T02:47:31.648Z,35.70
2022-11-10T02:50:02.375Z,35.90
2022-11-10T02:52:35.917Z,35.60
2022-11-10T02:55:08.189Z,35.60
2022-11-10T02:57:38.923Z,36.40
2022-11-10T03:00:12.560Z,35.60
2022-11-10T03:02:43.248Z,36.40
2022-11-10T03:05:16.785Z,36.30
2022-11-10T03:07:56.395Z,35.90
2022-11-10T03:10:27.963Z,35.60
2022-11-10T03:12:59.706Z,35.30
2022-11-10T03:15:31.275Z,35.70
2022-11-10T03:18:06.737Z,35.60
2022-11-10T03:20:37.523Z,35.90
2022-11-10T03:23:11.446Z,35.80
2022-11-10T03:25:42.199Z,35.90
2022-11-10T03:28:13.576Z,35.70
2022-11-10T03:30:46.507Z,35.60
2022-11-10T03:33:17.211Z,35.90
2022-11-10T03:35:48.102Z,36.20
2022-11-10T03:38:21.477Z,36.70
2022-11-10T03:43:44.298Z,36.40
2022-11-10T03:46:15.384Z,36.70
2022-11-10T03:48:53.553Z,36.40
2022-11-10T03:51:24.775Z,36.60
2022-11-10T03:53:58.173Z,36.40
2022-11-10T03:56:31.337Z,36.60
2022-11-10T03:59:02.043Z,36.00
2022-11-10T04:01:32.955Z,36.40
2022-11-10T04:04:04.267Z,36.70
2022-11-10T04:06:47.499Z,36.90
2022-11-10T04:09:21.048Z,37.60
2022-11-10T04:12:10.098Z,37.70
2022-11-10T04:14:53.503Z,37.90
2022-11-10T04:17:24.219Z,38.00
2022-11-10T04:19:55.827Z,37.60
2022-11-10T04:22:38.793Z,38.00
2022-11-10T04:25:12.748Z,38.50
2022-11-10T04:27:43.630Z,38.80
2022-11-10T04:30:14.664Z,38.30
2022-11-10T04:32:48.248Z,38.80
2022-11-10T04:35:22.483Z,39.20
2022-11-10T04:37:54.341Z,39.50
2022-11-10T04:40:27.664Z,38.70
2022-11-10T04:42:58.499Z,39.20
2022-11-10T04:45:32.223Z,39.90
2022-11-10T04:48:02.990Z,40.30
2022-11-10T04:50:34.059Z,40.40
2022-11-10T04:53:05.358Z,40.50
2022-11-10T04:55:42.301Z,41.10
2022-11-10T04:58:13.525Z,40.50
2022-11-10T05:00:45.150Z,40.90
2022-11-10T05:03:16.617Z,41.20
2022-11-10T05:05:47.344Z,41.90
2022-11-10T05:08:20.702Z,42.40
2022-11-10T05:10:56.294Z,42.10
2022-11-10T05:13:27.027Z,42.60
2022-11-10T05:15:57.903Z,43.10
2022-11-10T05:18:28.987Z,43.80
2022-11-10T05:21:00.150Z,43.90
2022-11-10T05:23:44.169Z,45.20
2022-11-10T05:26:21.324Z,45.40
2022-11-10T05:28:52.076Z,46.00
2022-11-10T05:31:22.929Z,46.40
2022-11-10T05:33:55.905Z,46.30
2022-11-10T05:36:30.196Z,45.60
2022-11-10T05:39:00.990Z,46.00
2022-11-10T05:41:35.040Z,45.80
2022-11-10T05:44:05.762Z,46.10
2022-11-10T05:46:38.801Z,46.30
2022-11-10T05:49:09.533Z,46.40
2022-11-10T05:51:44.815Z,47.00
2022-11-10T05:54:15.691Z,48.20
2022-11-10T05:56:49.072Z,49.20
2022-11-10T05:59:20.093Z,50.00
2022-11-10T06:01:51.037Z,51.50
2022-11-10T06:04:21.860Z,51.70
2022-11-10T06:06:55.344Z,53.00
2022-11-10T06:09:26.235Z,54.60
2022-11-10T06:12:00.664Z,54.40
2022-11-10T06:14:31.477Z,57.30
2022-11-10T06:17:02.302Z,58.10
2022-11-10T06:19:33.037Z,61.10
2022-11-10T06:22:07.696Z,61.70
2022-11-10T06:24:38.770Z,61.90
2022-11-10T06:27:15.628Z,61.80
2022-11-10T06:29:48.303Z,60.80
2022-11-10T06:32:19.083Z,61.40
2022-11-10T06:34:51.168Z,61.20
2022-11-10T06:37:22.144Z,61.40
2022-11-10T06:39:53.647Z,61.40
2022-11-10T06:42:28.368Z,62.20
2022-11-10T06:45:02.334Z,62.60
2022-11-10T06:47:37.587Z,63.10
2022-11-10T06:50:09.954Z,62.90
2022-11-10T06:52:41.203Z,63.10
2022-11-10T06:55:12.578Z,63.20
2022-11-10T06:57:48.384Z,61.80
2022-11-10T07:00:20.432Z,63.10
2022-11-10T07:02:53.975Z,63.90
2022-11-10T07:05:26.892Z,63.80
2022-11-10T07:07:57.659Z,64.30
2022-11-10T07:10:28.383Z,64.60
2022-11-10T07:13:02.937Z,63.40
2022-11-10T07:15:34.654Z,64.10
2022-11-10T07:18:08.643Z,63.40
2022-11-10T07:20:39.498Z,63.30
2022-11-10T07:23:11.863Z,63.50
2022-11-10T07:25:42.609Z,63.30
2022-11-10T07:28:15.961Z,62.70
2022-11-10T07:30:46.758Z,62.50
2022-11-10T07:33:19.026Z,62.60
2022-11-10T07:35:57.792Z,61.60
2022-11-10T07:38:28.561Z,61.50
2022-11-10T07:41:01.291Z,62.10
2022-11-10T07:43:34.671Z,61.80
2022-11-10T07:46:05.405Z,62.30
2022-11-10T07:48:36.366Z,61.90
2022-11-10T07:51:07.772Z,61.40
2022-11-10T07:53:38.921Z,62.00
2022-11-10T07:56:10.577Z,62.30
2022-11-10T07:58:46.702Z,62.30
2022-11-10T08:01:17.495Z,61.40
2022-11-10T08:03:48.285Z,61.10
2022-11-10T08:06:21.483Z,61.10
2022-11-10T08:08:52.331Z,60.80
2022-11-10T08:11:23.190Z,60.60
2022-11-10T08:13:56.519Z,60.40
2022-11-10T08:16:27.341Z,60.10
2022-11-10T08:18:58.087Z,58.60
2022-11-10T08:21:28.979Z,57.40
2022-11-10T08:24:02.896Z,56.70
2022-11-10T08:26:34.555Z,54.60
2022-11-10T08:29:07.929Z,54.40
2022-11-10T08:31:39.001Z,53.80
2022-11-10T08:34:09.859Z,52.50
2022-11-10T08:36:41.767Z,51.10
2022-11-10T08:39:13.288Z,49.60
2022-11-10T08:41:48.887Z,49.20
2022-11-10T08:44:22.178Z,49.70
2022-11-10T08:46:53.814Z,48.20
2022-11-10T08:49:26.851Z,46.90
2022-11-10T08:51:58.944Z,46.70
2022-11-10T08:54:29.706Z,46.10
2022-11-10T08:57:00.538Z,44.60
2022-11-10T08:59:33.943Z,43.10
2022-11-10T09:02:07.365Z,42.60
2022-11-10T09:04:38.202Z,42.30
2022-11-10T09:07:09.751Z,41.70
2022-11-10T09:09:40.556Z,41.50
2022-11-10T09:12:12.927Z,40.60
2022-11-10T09:14:46.274Z,40.70
2022-11-10T09:17:17.998Z,40.30
2022-11-10T09:19:48.765Z,40.30
2022-11-10T09:22:19.548Z,39.60
2022-11-10T09:24:50.378Z,39.50
2022-11-10T09:27:24.945Z,38.90
2022-11-10T09:29:59.587Z,38.60
2022-11-10T09:32:32.195Z,38.50
2022-11-10T09:35:03.580Z,38.50
2022-11-10T09:37:34.973Z,38.10
2022-11-10T09:40:10.420Z,37.80
2022-11-10T09:42:46.039Z,37.00
2022-11-10T09:45:32.814Z,36.20
2022-11-10T09:48:17.405Z,35.10
2022-11-10T09:50:52.500Z,34.60
2022-11-10T09:53:27.575Z,34.70
2022-11-10T09:56:03.354Z,32.50
2022-11-10T09:58:40.282Z,32.50
2022-11-10T10:01:27.854Z,31.80
2022-11-10T10:04:08.772Z,31.50
2022-11-10T10:07:09.703Z,30.40
2022-11-10T10:09:46.568Z,29.70
2022-11-10T10:12:30.428Z,29.00
2022-11-10T10:15:17.902Z,28.50
2022-11-10T10:18:08.759Z,28.20
2022-11-10T10:20:50.475Z,27.40
2022-11-10T10:23:54.029Z,26.00
2022-11-10T10:26:25.752Z,26.00
2022-11-10T10:28:57.374Z,25.80
2022-11-10T10:31:35.290Z,25.30
2022-11-10T10:34:15.399Z,25.40
2022-11-10T10:36:47.067Z,24.60
2022-11-10T10:39:27.383Z,24.10
2022-11-10T10:41:58.737Z,24.80
2022-11-10T10:44:30.138Z,23.20
2022-11-10T10:47:03.140Z,23.40
2022-11-10T10:49:38.038Z,22.70
2022-11-10T10:52:13.946Z,22.60
2022-11-10T10:54:44.753Z,22.60
2022-11-10T10:57:25.241Z,22.30
2022-11-10T11:00:15.427Z,22.40
2022-11-10T11:02:46.734Z,21.00
2022-11-10T11:05:22.378Z,20.70
2022-11-10T11:07:58.358Z,19.90
2022-11-10T11:10:33.161Z,19.20
2022-11-10T11:13:17.224Z,19.50
2022-11-10T11:15:59.611Z,19.20
2022-11-10T11:18:33.895Z,20.00
2022-11-10T11:21:19.150Z,19.50
2022-11-10T11:24:20.711Z,19.10
2022-11-10T11:26:58.356Z,18.40
2022-11-10T11:29:58.440Z,19.00
2022-11-10T11:33:05.229Z,17.70
2022-11-10T11:35:46.998Z,17.70
2022-11-10T11:38:32.202Z,17.70
2022-11-10T11:41:15.382Z,17.20
2022-11-10T11:44:12.766Z,17.30
2022-11-10T11:46:52.037Z,17.20
2022-11-10T11:49:44.132Z,16.40
2022-11-10T11:52:22.504Z,15.90
2022-11-10T11:55:16.261Z,16.40
2022-11-10T11:57:57.441Z,15.80
2022-11-10T12:00:28.312Z,15.80
2022-11-10T12:03:34.120Z,15.50
2022-11-10T12:06:30.643Z,15.50
2022-11-10T12:09:08.107Z,14.20
2022-11-10T12:11:57.217Z,14.40
2022-11-10T12:14:35.007Z,13.60
2022-11-10T12:17:13.559Z,14.00
2022-11-10T12:19:53.278Z,13.90
2022-11-10T12:22:33.411Z,14.30
2022-11-10T12:25:16.386Z,14.10
2022-11-10T12:27:56.633Z,12.30
2022-11-10T12:30:27.864Z,12.10
2022-11-10T12:33:03.567Z,11.30
2022-11-10T12:35:38.493Z,11.30
2022-11-10T12:38:14.775Z,11.50
2022-11-10T12:40:49.843Z,10.50
2022-11-10T12:43:36.156Z,9.70
2022-11-10T12:46:12.080Z,9.60
2022-11-10T12:48:56.132Z,9.70
2022-11-10T12:51:30.664Z,10.00
2022-11-10T12:54:01.747Z,9.60
2022-11-10T12:56:38.944Z,8.70
2022-11-10T12:59:38.849Z,9.00
2022-11-10T13:02:25.831Z,9.00
2022-11-10T13:05:29.615Z,9.00
2022-11-10T13:08:27.382Z,7.10
2022-11-10T13:11:00.645Z,5.10
2022-11-10T13:13:31.849Z,5.60
2022-11-10T13:16:05.374Z,6.00
2022-11-10T13:19:04.127Z,5.40
2022-11-10T13:22:07.524Z,4.20
2022-11-10T13:24:39.614Z,5.40
2022-11-10T13:27:14.535Z,5.70
2022-11-10T13:29:59.689Z,4.10
2022-11-10T13:32:34.573Z,5.20
2022-11-10T13:35:41.555Z,3.10
2022-11-10T13:38:36.103Z,3.40
2022-11-10T13:41:34.823Z,3.40
2022-11-10T13:44:06.197Z,3.10
2022-11-10T13:46:39.220Z,1.50
2022-11-10T13:49:38.639Z,2.40
2022-11-10T13:52:16.697Z,1.00
2022-11-10T13:55:15.914Z,1.00
2022-11-10T13:58:01.200Z,1.00
2022-11-10T14:00:34.358Z,1.00
2022-11-10T14:03:07.192Z,1.00
2022-11-10T14:06:10.766Z,1.00
2022-11-10T14:08:51.108Z,1.00
2022-11-10T14:11:31.406Z,1.00
2022-11-10T14:14:17.679Z,1.00
2022-11-10T14:16:49.543Z,1.00
2022-11-10T14:19:28.788Z,1.00
2022-11-10T14:22:07.158Z,1.00
2022-11-10T14:24:42.081Z,1.00
2022-11-10T14:27:18.369Z,1.00
2022-11-10T14:30:08.057Z,1.00
2022-11-10T14:32:38.797Z,1.00
2022-11-10T14:35:19.987Z,1.00
2022-11-10T14:37:54.088Z,1.00
2022-11-10T14:40:26.443Z,1.00
2022-11-10T14:42:57.364Z,1.00
2022-11-10T14:45:29.925Z,1.00
2022-11-10T14:48:02.853Z,1.00
2022-11-10T14:50:35.429Z,1.00
2022-11-10T14:53:24.449Z,1.00
2022-11-10T14:55:55.947Z,1.10
2022-11-10T14:58:32.015Z,1.00
2022-11-10T15:01:04.387Z,1.00
2022-11-10T15:03:38.415Z,1.00
2022-11-10T15:06:12.595Z,1.20
2022-11-10T15:08:46.662Z,1.60
2022-11-10T15:11:36.309Z,1.20
2022-11-10T15:14:42.385Z,1.40
2022-11-10T15:17:14.946Z,1.50
2022-11-10T15:19:57.015Z,2.00
2022-11-10T15:22:33.083Z,1.60
2022-11-10T15:25:18.382Z,2.00
2022-11-10T15:28:01.412Z,2.40
2022-11-10T15:30:32.444Z,2.10
2022-11-10T15:33:12.346Z,1.90
2022-11-10T15:35:43.180Z,2.40
2022-11-10T15:38:42.645Z,2.20
2022-11-10T15:41:22.914Z,2.70
2022-11-10T15:43:57.422Z,2.80
2022-11-10T15:46:33.179Z,2.90
2022-11-10T15:49:08.860Z,3.10
2022-11-10T15:51:39.667Z,3.10
2022-11-10T15:54:13.021Z,3.40
2022-11-10T15:56:46.318Z,3.40
2022-11-10T15:59:18.921Z,3.50
2022-11-10T16:01:50.282Z,3.90
2022-11-10T16:04:21.271Z,4.10
2022-11-10T16:06:52.631Z,4.10
2022-11-10T16:09:23.448Z,4.30
2022-11-10T16:11:59.810Z,5.00
2022-11-10T16:14:33.761Z,4.70
2022-11-10T16:17:04.543Z,4.90
2022-11-10T16:19:35.672Z,4.60
2022-11-10T16:22:06.441Z,5.00
2022-11-10T16:24:39.876Z,4.80
2022-11-10T16:27:17.932Z,4.90
2022-11-10T16:29:48.929Z,5.00
2022-11-10T16:32:20.175Z,4.70
2022-11-10T16:34:50.980Z,5.00
2022-11-10T16:37:22.186Z,5.20
2022-11-10T16:39:55.352Z,5.40
2022-11-10T16:42:29.293Z,5.50
2022-11-10T16:45:01.088Z,5.40
2022-11-10T16:47:34.791Z,5.50
2022-11-10T16:50:11.085Z,5.80
2022-11-10T16:52:46.569Z,5.60
2022-11-10T16:55:17.604Z,6.00
2022-11-10T16:57:51.053Z,5.90
2022-11-10T17:00:23.133Z,6.00
2022-11-10T17:03:03.335Z,6.50
2022-11-10T17:05:34.277Z,6.70
2022-11-10T17:08:06.971Z,6.60
2022-11-10T17:10:40.537Z,6.60
2022-11-10T17:13:17.568Z,7.40
2022-11-10T17:15:49.345Z,7.00
2022-11-10T17:18:24.139Z,7.30
2022-11-10T17:20:55.765Z,7.70
2022-11-10T17:23:28.135Z,8.10
2022-11-10T17:25:59.093Z,7.90
2022-11-10T17:28:32.387Z,8.40
2022-11-10T17:31:05.922Z,8.30
2022-11-10T17:33:36.654Z,8.50
2022-11-10T17:36:09.364Z,9.10
2022-11-10T17:38:40.768Z,10.20
2022-11-10T17:41:17.829Z,10.90
2022-11-10T17:43:51.113Z,11.50
2022-11-10T17:46:21.836Z,12.10
2022-11-10T17:49:00.168Z,13.50
2022-11-10T17:51:35.708Z,14.50
2022-11-10T17:54:08.182Z,15.10
2022-11-10T17:56:39.873Z,15.50
2022-11-10T17:59:13.299Z,16.50
2022-11-10T18:01:44.413Z,16.50
2022-11-10T18:04:15.728Z,16.70
2022-11-10T18:06:46.834Z,16.80
2022-11-10T18:09:19.638Z,17.70
2022-11-10T18:11:50.415Z,18.10
2022-11-10T18:14:23.740Z,18.40
2022-11-10T18:16:54.721Z,18.70
2022-11-10T18:19:25.548Z,18.50
2022-11-10T18:21:57.917Z,18.50
2022-11-10T18:24:28.687Z,18.60
2022-11-10T18:26:59.490Z,19.20
2022-11-10T18:29:33.162Z,19.30
2022-11-10T18:32:06.463Z,19.40
2022-11-10T18:34:37.278Z,19.90
2022-11-10T18:37:08.073Z,20.40
2022-11-10T18:39:38.954Z,20.70
2022-11-10T18:42:09.781Z,20.60
2022-11-10T18:44:47.625Z,20.50
2022-11-10T18:47:20.631Z,20.70
2022-11-10T18:49:53.869Z,20.50
2022-11-10T18:52:25.590Z,20.70
2022-11-10T18:54:56.552Z,21.10
2022-11-10T18:57:27.268Z,21.00
2022-11-10T19:00:00.997Z,21.00
2022-11-10T19:02:32.014Z,21.10
2022-11-10T19:05:02.953Z,21.00
2022-11-10T19:07:34.334Z,21.00
2022-11-10T19:10:08.862Z,21.10
2022-11-10T19:12:39.740Z,21.40
2022-11-10T19:15:13.176Z,21.60
2022-11-10T19:17:46.282Z,21.90
2022-11-10T19:20:17.998Z,22.20
2022-11-10T19:22:48.800Z,22.10
2022-11-10T19:25:19.737Z,21.90
2022-11-10T19:27:50.446Z,22.20
2022-11-10T19:30:26.174Z,22.00
2022-11-10T19:32:57.154Z,21.90
2022-11-10T19:35:27.896Z,22.20
2022-11-10T19:37:58.606Z,22.60
2022-11-10T19:40:29.918Z,23.00
2022-11-10T19:43:00.666Z,22.50
2022-11-10T19:45:37.902Z,22.70
2022-11-10T19:48:09.929Z,22.50
2022-11-10T19:50:43.936Z,22.50
2022-11-10T19:53:22.075Z,22.50
2022-11-10T19:55:53.540Z,22.50
2022-11-10T19:58:24.630Z,22.30
2022-11-10T20:01:01.315Z,22.60
2022-11-10T20:03:32.570Z,22.80
2022-11-10T20:06:07.441Z,22.20
2022-11-10T20:08:38.435Z,21.90
2022-11-10T20:11:14.443Z,21.90
2022-11-10T20:13:49.779Z,21.80
2022-11-10T20:16:28.071Z,21.80
2022-11-10T20:18:58.867Z,21.60
2022-11-10T20:21:30.311Z,21.40
2022-11-10T20:24:01.103Z,21.20
2022-11-10T20:26:31.819Z,21.10
2022-11-10T20:29:02.551Z,21.00
2022-11-10T20:31:37.030Z,21.40
2022-11-10T20:34:07.798Z,21.30
2022-11-10T20:36:38.819Z,21.80
2022-11-10T20:39:10.613Z,21.10
2022-11-10T20:41:42.538Z,21.20
2022-11-10T20:44:13.226Z,21.40
2022-11-10T20:46:54.435Z,21.30
2022-11-10T20:49:25.828Z,21.50
2022-11-10T20:51:59.718Z,21.10
2022-11-10T20:54:30.965Z,20.90
2022-11-10T20:57:01.911Z,20.70
2022-11-10T20:59:32.648Z,20.90
2022-11-10T21:02:06.120Z,20.70
2022-11-10T21:04:42.904Z,20.90
2022-11-10T21:07:14.432Z,20.70
2022-11-10T21:09:45.409Z,20.50
2022-11-10T21:12:29.000Z,20.40
2022-11-10T21:15:00.194Z,20.70
2022-11-10T21:17:38.079Z,20.50
2022-11-10T21:20:11.804Z,21.00
2022-11-10T21:22:42.914Z,20.80
2022-11-10T21:25:15.209Z,21.10
2022-11-10T21:27:47.224Z,21.10
2022-11-10T21:30:22.963Z,21.00
2022-11-10T21:32:56.525Z,21.10
2022-11-10T21:35:27.470Z,21.50
2022-11-10T21:38:03.216Z,21.70
2022-11-10T21:40:36.540Z,21.80
2022-11-10T21:43:07.824Z,21.80
2022-11-10T21:45:38.624Z,22.00
2022-11-10T21:48:12.399Z,22.00
2022-11-10T21:50:43.441Z,21.60
2022-11-10T21:53:16.650Z,21.40
2022-11-10T21:55:47.457Z,21.20
2022-11-10T21:58:18.249Z,21.40
2022-11-10T22:00:48.940Z,21.20
2022-11-10T22:03:22.733Z,21.30
2022-11-10T22:05:54.104Z,21.40
2022-11-10T22:08:24.936Z,21.50
2022-11-10T22:11:08.251Z,21.20
2022-11-10T22:13:51.470Z,21.00
2022-11-10T22:16:37.296Z,21.10
2022-11-10T22:19:11.503Z,21.20
2022-11-10T22:21:42.378Z,21.00
2022-11-10T22:24:25.695Z,20.80
2022-11-10T22:26:58.630Z,20.90
2022-11-10T22:29:32.011Z,21.00
2022-11-10T22:32:04.969Z,20.90
2022-11-10T22:34:39.760Z,21.00
2022-11-10T22:37:12.661Z,20.90
2022-11-10T22:39:55.819Z,21.00
2022-11-10T22:42:39.126Z,20.90
2022-11-10T22:45:11.154Z,20.70
2022-11-10T22:47:54.349Z,21.00
2022-11-10T22:50:27.804Z,20.50
2022-11-10T22:52:59.775Z,20.10
2022-11-10T22:55:30.657Z,20.10
2022-11-10T22:58:01.565Z,20.40
2022-11-10T23:00:32.799Z,20.40
2022-11-10T23:03:04.004Z,20.40
2022-11-10T23:05:39.957Z,20.50
2022-11-10T23:08:10.685Z,20.20
2022-11-10T23:10:41.369Z,19.90
2022-11-10T23:13:12.087Z,19.90
2022-11-10T23:15:44.578Z,20.10
2022-11-10T23:18:15.319Z,20.00
2022-11-10T23:20:48.811Z,19.90
2022-11-10T23:23:22.915Z,20.10
2022-11-10T23:26:01.668Z,20.00
2022-11-10T23:28:33.963Z,20.20
2022-11-10T23:31:12.829Z,20.40
2022-11-10T23:33:46.261Z,20.30
2022-11-10T23:36:22.292Z,20.20
2022-11-10T23:38:55.467Z,20.30
2022-11-10T23:41:27.008Z,20.60
2022-11-10T23:43:59.112Z,20.30
2022-11-10T23:46:30.072Z,20.40
2022-11-10T23:49:01.023Z,20.60
2022-11-10T23:51:34.646Z,20.80
2022-11-10T23:54:05.323Z,20.50
2022-11-10T23:56:36.886Z,20.90
2022-11-10T23:59:07.755Z,20.60
